createdAt,value
2019-02-11T00:01:32.101Z,35.55
2019-02-11T00:04:03.902Z,33.33
2019-02-11T00:06:35.141Z,31.57
2019-02-11T00:09:09.329Z,32.95
2019-02-11T00:11:40.412Z,36.38
2019-02-11T00:14:11.472Z,33.60
2019-02-11T00:16:43.422Z,37.33
2019-02-11T00:19:14.576Z,38.15
2019-02-11T00:21:45.812Z,36.65
2019-02-11T00:24:15.793Z,37.83
2019-02-11T00:26:45.868Z,37.93
2019-02-11T00:29:15.277Z,40.33
2019-02-11T00:31:46.351Z,36.13
2019-02-11T00:34:17.521Z,35.85
2019-02-11T00:36:47.649Z,32.13
2019-02-11T00:39:18.697Z,38.42
2019-02-11T00:41:49.777Z,36.98
2019-02-11T00:44:20.823Z,30.17
2019-02-11T00:46:51.957Z,34.38
2019-02-11T00:49:23.094Z,33.90
2019-02-11T00:51:54.337Z,35.68
2019-02-11T00:54:26.824Z,30.82
2019-02-11T00:56:56.818Z,25.88
2019-02-11T00:59:29.217Z,29.92
2019-02-11T01:01:59.101Z,26.93
2019-02-11T01:04:30.252Z,29.32
2019-02-11T01:07:01.367Z,30.12
2019-02-11T01:09:32.618Z,27.00
2019-02-11T01:12:03.692Z,24.15
2019-02-11T01:14:34.721Z,24.87
2019-02-11T01:17:07.063Z,28.55
2019-02-11T01:19:38.107Z,29.67
2019-02-11T01:22:11.593Z,28.90
2019-02-11T01:24:42.681Z,29.50
2019-02-11T01:27:13.853Z,26.33
2019-02-11T01:29:44.845Z,32.70
2019-02-11T01:32:16.985Z,31.27
2019-02-11T01:34:48.172Z,30.95
2019-02-11T01:37:20.660Z,34.27
2019-02-11T01:39:51.789Z,32.78
2019-02-11T01:42:22.815Z,36.63
2019-02-11T01:44:52.692Z,31.17
2019-02-11T01:47:26.142Z,35.17
2019-02-11T01:49:57.337Z,34.23
2019-02-11T01:52:27.257Z,35.48
2019-02-11T01:54:57.112Z,34.15
2019-02-11T01:57:28.173Z,38.10
2019-02-11T01:59:59.352Z,37.55
2019-02-11T02:02:30.492Z,42.55
2019-02-11T02:05:00.532Z,38.83
2019-02-11T02:07:30.532Z,40.65
2019-02-11T02:10:03.977Z,41.30
2019-02-11T02:12:35.052Z,42.08
2019-02-11T02:15:06.733Z,44.40
2019-02-11T02:17:37.935Z,36.58
2019-02-11T02:20:12.273Z,51.08
2019-02-11T02:22:44.579Z,45.92
2019-02-11T02:25:15.752Z,46.60
2019-02-11T02:27:46.852Z,47.55
2019-02-11T02:30:17.870Z,49.65
2019-02-11T02:32:49.172Z,44.45
2019-02-11T02:35:20.287Z,50.08
2019-02-11T02:37:50.339Z,55.23
2019-02-11T02:40:22.105Z,55.28
2019-02-11T02:42:53.264Z,36.68
2019-02-11T02:45:25.052Z,44.05
2019-02-11T02:47:56.110Z,38.42
2019-02-11T02:50:27.260Z,46.20
2019-02-11T02:52:59.023Z,46.88
2019-02-11T02:55:30.181Z,52.62
2019-02-11T02:58:03.332Z,40.55
2019-02-11T03:00:34.409Z,40.03
2019-02-11T03:03:05.100Z,46.70
2019-02-11T03:05:36.252Z,37.95
2019-02-11T03:08:06.157Z,42.50
2019-02-11T03:10:36.211Z,41.45
2019-02-11T03:13:06.177Z,34.30
2019-02-11T03:15:37.257Z,41.68
2019-02-11T03:18:07.214Z,45.67
2019-02-11T03:20:37.172Z,33.30
2019-02-11T03:23:08.255Z,41.63
2019-02-11T03:25:38.139Z,39.60
2019-02-11T03:28:09.371Z,42.25
2019-02-11T03:30:39.387Z,39.75
2019-02-11T03:33:08.781Z,37.08
2019-02-11T03:35:38.781Z,42.08
2019-02-11T03:38:08.898Z,40.52
2019-02-11T03:40:40.067Z,39.55
2019-02-11T03:43:12.659Z,43.60
2019-02-11T03:45:43.411Z,39.90
2019-02-11T03:48:14.177Z,40.95
2019-02-11T03:50:44.849Z,39.42
2019-02-11T03:53:16.027Z,43.75
2019-02-11T03:55:47.240Z,43.55
2019-02-11T03:58:17.132Z,19.40
2019-02-11T04:00:48.213Z,37.90
2019-02-11T04:03:19.382Z,31.23
2019-02-11T04:05:50.509Z,42.17
2019-02-11T04:08:20.938Z,39.13
2019-02-11T04:10:52.091Z,28.85
2019-02-11T04:13:23.230Z,28.83
2019-02-11T04:15:57.102Z,37.15
2019-02-11T04:18:28.254Z,27.02
2019-02-11T04:20:58.132Z,29.35
2019-02-11T04:23:29.249Z,35.08
2019-02-11T04:26:00.373Z,30.75
2019-02-11T04:28:31.432Z,38.02
2019-02-11T04:31:01.401Z,28.25
2019-02-11T04:33:30.765Z,31.37
2019-02-11T04:36:00.930Z,25.82
2019-02-11T04:38:32.061Z,39.83
2019-02-11T04:42:06.945Z,38.08
2019-02-11T04:44:36.501Z,20.02
2019-02-11T04:47:06.803Z,33.73
2019-02-11T04:49:36.897Z,33.78
2019-02-11T04:52:08.029Z,29.90
2019-02-11T04:54:40.689Z,26.82
2019-02-11T04:57:11.901Z,36.70
2019-02-11T04:59:44.097Z,15.08
2019-02-11T05:02:16.652Z,21.55
2019-02-11T05:04:47.530Z,30.12
2019-02-11T05:07:18.817Z,32.05
2019-02-11T05:09:50.864Z,26.20
2019-02-11T05:12:21.590Z,18.55
2019-02-11T05:14:52.654Z,26.93
2019-02-11T05:17:23.776Z,18.73
2019-02-11T05:19:53.880Z,21.75
2019-02-11T05:22:25.140Z,28.00
2019-02-11T05:24:57.062Z,21.55
2019-02-11T05:27:29.553Z,36.65
2019-02-11T05:30:00.591Z,25.43
2019-02-11T05:32:31.704Z,16.15
2019-02-11T05:35:02.880Z,21.77
2019-02-11T05:37:34.057Z,20.25
2019-02-11T05:40:05.197Z,23.00
2019-02-11T05:42:35.225Z,34.65
2019-02-11T05:45:06.949Z,27.98
2019-02-11T05:47:38.066Z,26.52
2019-02-11T05:50:15.434Z,22.20
2019-02-11T05:52:45.418Z,17.92
2019-02-11T05:55:16.504Z,29.15
2019-02-11T05:57:47.534Z,15.53
2019-02-11T06:00:20.439Z,27.87
2019-02-11T06:02:51.664Z,24.10
2019-02-11T06:05:22.861Z,15.40
2019-02-11T06:07:52.912Z,16.67
2019-02-11T06:10:23.922Z,13.60
2019-02-11T06:12:54.022Z,25.97
2019-02-11T06:15:25.862Z,18.90
2019-02-11T06:17:57.018Z,18.07
2019-02-11T06:20:28.138Z,19.55
2019-02-11T06:22:59.261Z,18.45
2019-02-11T06:25:30.656Z,23.32
2019-02-11T06:28:01.777Z,18.25
2019-02-11T06:30:32.827Z,13.93
2019-02-11T06:33:04.012Z,14.68
2019-02-11T06:35:34.797Z,22.42
2019-02-11T06:38:06.813Z,14.93
2019-02-11T06:40:36.777Z,15.03
2019-02-11T06:43:07.932Z,20.08
2019-02-11T06:45:37.909Z,18.00
2019-02-11T06:48:09.143Z,15.20
2019-02-11T06:50:40.403Z,13.38
2019-02-11T06:53:11.674Z,14.60
2019-02-11T06:55:42.782Z,17.17
2019-02-11T06:58:13.972Z,11.93
2019-02-11T07:00:45.143Z,24.40
2019-02-11T07:03:16.494Z,14.38
2019-02-11T07:05:47.734Z,23.45
2019-02-11T07:08:18.946Z,13.85
2019-02-11T07:10:55.453Z,14.23
2019-02-11T07:13:23.084Z,15.18
2019-02-11T07:15:54.302Z,14.25
2019-02-11T07:18:25.514Z,14.55
2019-02-11T07:20:57.334Z,12.35
2019-02-11T07:23:29.795Z,13.48
2019-02-11T07:26:00.956Z,26.82
2019-02-11T07:28:32.024Z,16.45
2019-02-11T07:31:03.191Z,21.50
2019-02-11T07:33:36.301Z,10.05
2019-02-11T07:36:07.547Z,13.30
2019-02-11T07:38:38.699Z,20.70
2019-02-11T07:41:09.743Z,18.67
2019-02-11T07:43:45.421Z,14.75
2019-02-11T07:46:18.391Z,15.23
2019-02-11T07:48:50.293Z,15.38
2019-02-11T07:51:20.274Z,14.05
2019-02-11T07:53:52.163Z,11.45
2019-02-11T07:56:23.307Z,17.02
2019-02-11T07:58:54.476Z,11.73
2019-02-11T08:01:25.593Z,11.22
2019-02-11T08:03:56.202Z,13.30
2019-02-11T08:06:28.429Z,21.85
2019-02-11T08:08:59.870Z,13.45
2019-02-11T08:11:30.150Z,24.50
2019-02-11T08:14:00.397Z,18.60
2019-02-11T08:16:31.639Z,19.82
2019-02-11T08:19:02.957Z,17.62
2019-02-11T08:21:34.200Z,26.20
2019-02-11T08:24:05.641Z,23.07
2019-02-11T08:26:36.802Z,13.38
2019-02-11T08:29:08.230Z,22.40
2019-02-11T08:31:39.440Z,18.00
2019-02-11T08:34:10.670Z,15.48
2019-02-11T08:36:41.879Z,14.98
2019-02-11T08:39:12.213Z,10.30
2019-02-11T08:41:43.510Z,16.27
2019-02-11T08:44:14.762Z,15.15
2019-02-11T08:46:46.201Z,14.33
2019-02-11T08:49:17.469Z,12.88
2019-02-11T08:51:49.711Z,11.53
2019-02-11T08:54:20.994Z,13.10
2019-02-11T08:56:52.250Z,13.98
2019-02-11T08:59:23.765Z,14.50
2019-02-11T09:01:55.801Z,14.10
2019-02-11T09:04:27.112Z,11.43
2019-02-11T09:06:58.561Z,11.57
2019-02-11T09:09:29.950Z,12.70
2019-02-11T09:12:00.127Z,14.00
2019-02-11T09:14:30.987Z,10.75
2019-02-11T09:17:10.096Z,13.85
2019-02-11T09:19:35.787Z,15.28
2019-02-11T09:22:07.738Z,14.45
2019-02-11T09:24:39.435Z,14.45
2019-02-11T09:27:10.829Z,14.80
2019-02-11T09:29:42.192Z,13.38
2019-02-11T09:32:12.390Z,13.30
2019-02-11T09:34:44.871Z,14.70
2019-02-11T09:37:16.289Z,12.65
2019-02-11T09:39:47.794Z,13.20
2019-02-11T09:46:25.349Z,13.83
2019-02-11T09:48:56.510Z,13.95
2019-02-11T09:51:29.355Z,10.23
2019-02-11T09:54:01.042Z,13.65
2019-02-11T09:56:32.311Z,11.97
2019-02-11T09:59:03.790Z,12.20
2019-02-11T10:01:35.314Z,17.10
2019-02-11T10:04:06.570Z,11.33
2019-02-11T10:06:37.989Z,13.80
2019-02-11T10:09:09.831Z,12.63
2019-02-11T10:11:40.962Z,10.80
2019-02-11T10:14:12.161Z,12.28
2019-02-11T10:16:43.926Z,14.45
2019-02-11T10:19:14.609Z,10.90
2019-02-11T10:21:46.029Z,12.65
2019-02-11T10:24:17.709Z,9.58
2019-02-11T10:26:50.475Z,10.43
2019-02-11T10:29:21.597Z,10.98
2019-02-11T10:31:53.671Z,11.18
2019-02-11T10:34:24.962Z,8.93
2019-02-11T10:36:56.238Z,8.80
2019-02-11T10:39:27.409Z,12.82
2019-02-11T10:41:58.967Z,7.53
2019-02-11T10:44:30.296Z,9.35
2019-02-11T10:47:02.365Z,9.58
2019-02-11T10:49:33.669Z,9.73
2019-02-11T10:52:05.678Z,8.00
2019-02-11T10:54:36.991Z,10.68
2019-02-11T10:57:08.350Z,10.08
2019-02-11T10:59:39.632Z,9.63
2019-02-11T11:02:10.797Z,8.75
2019-02-11T11:04:42.749Z,8.88
2019-02-11T11:07:13.990Z,8.83
2019-02-11T11:09:45.390Z,8.53
2019-02-11T11:12:16.789Z,8.73
2019-02-11T11:14:48.151Z,6.50
2019-02-11T11:17:19.482Z,8.05
2019-02-11T11:19:50.830Z,7.33
2019-02-11T11:22:22.275Z,6.78
2019-02-11T11:24:53.514Z,6.95
2019-02-11T11:27:23.674Z,7.58
2019-02-11T11:29:53.190Z,6.45
2019-02-11T11:32:24.362Z,7.25
2019-02-11T11:34:56.555Z,7.35
2019-02-11T11:37:30.471Z,6.30
2019-02-11T11:40:01.846Z,6.55
2019-02-11T11:42:33.109Z,6.05
2019-02-11T11:45:04.272Z,6.33
2019-02-11T11:47:36.123Z,5.37
2019-02-11T11:50:09.006Z,5.37
2019-02-11T11:52:40.392Z,6.03
2019-02-11T11:55:14.199Z,5.15
2019-02-11T11:57:44.393Z,4.30
2019-02-11T12:00:20.149Z,5.40
2019-02-11T12:03:03.942Z,6.15
2019-02-11T12:05:26.793Z,6.47
2019-02-11T12:07:57.210Z,5.70
2019-02-11T12:10:28.565Z,4.37
2019-02-11T12:12:59.907Z,5.75
2019-02-11T12:15:31.348Z,4.08
2019-02-11T12:18:02.605Z,4.50
2019-02-11T12:20:34.382Z,5.33
2019-02-11T12:23:05.995Z,4.30
2019-02-11T12:25:36.182Z,6.05
2019-02-11T12:28:07.496Z,5.10
2019-02-11T12:30:40.393Z,4.20
2019-02-11T12:33:11.688Z,3.92
2019-02-11T12:35:43.110Z,3.10
2019-02-11T12:38:13.360Z,3.05
2019-02-11T12:40:46.073Z,2.77
2019-02-11T12:43:16.152Z,2.87
2019-02-11T12:45:47.522Z,2.42
2019-02-11T12:48:17.920Z,2.33
2019-02-11T12:50:48.924Z,2.52
2019-02-11T12:53:22.035Z,2.37
2019-02-11T12:55:53.329Z,2.52
2019-02-11T12:58:24.762Z,2.20
2019-02-11T13:00:55.829Z,2.05
2019-02-11T13:03:28.558Z,1.75
2019-02-11T13:05:59.915Z,1.72
2019-02-11T13:08:30.032Z,1.30
2019-02-11T13:11:01.465Z,2.12
2019-02-11T13:13:33.210Z,1.30
2019-02-11T13:16:04.539Z,1.85
2019-02-11T13:18:39.233Z,1.82
2019-02-11T13:21:09.640Z,1.72
2019-02-11T13:23:39.213Z,1.92
2019-02-11T13:26:10.855Z,1.62
2019-02-11T13:28:40.386Z,2.42
2019-02-11T13:31:10.618Z,3.08
2019-02-11T13:33:42.003Z,2.60
2019-02-11T13:36:13.532Z,1.85
2019-02-11T13:38:44.931Z,2.10
2019-02-11T13:41:16.255Z,2.30
2019-02-11T13:43:54.710Z,2.52
2019-02-11T13:46:26.167Z,2.67
2019-02-11T13:49:00.410Z,2.50
2019-02-11T13:51:31.638Z,2.42
2019-02-11T13:54:03.118Z,2.58
2019-02-11T13:56:34.477Z,2.62
2019-02-11T13:59:05.927Z,2.33
2019-02-11T14:01:36.080Z,3.08
2019-02-11T14:04:07.635Z,2.98
2019-02-11T14:06:37.756Z,3.85
2019-02-11T14:09:12.252Z,2.25
2019-02-11T14:11:42.572Z,2.75
2019-02-11T14:14:13.980Z,2.27
2019-02-11T14:16:44.253Z,2.80
2019-02-11T14:19:15.675Z,2.52
2019-02-11T14:21:46.883Z,3.25
2019-02-11T14:24:18.159Z,3.87
2019-02-11T14:26:49.526Z,3.45
2019-02-11T14:29:20.735Z,3.62
2019-02-11T14:31:52.303Z,2.70
2019-02-11T14:34:23.525Z,4.17
2019-02-11T14:36:53.837Z,3.30
2019-02-11T14:39:24.138Z,3.83
2019-02-11T14:41:54.710Z,3.20
2019-02-11T14:44:26.483Z,4.72
2019-02-11T14:46:56.931Z,5.47
2019-02-11T14:49:28.413Z,4.58
2019-02-11T14:51:59.899Z,5.20
2019-02-11T14:54:31.287Z,5.75
2019-02-11T14:57:02.647Z,5.25
2019-02-11T14:59:34.721Z,3.90
2019-02-11T15:02:06.169Z,4.60
2019-02-11T15:04:37.599Z,2.72
2019-02-11T15:07:09.073Z,4.35
2019-02-11T15:09:39.807Z,5.67
2019-02-11T15:12:11.112Z,5.35
2019-02-11T15:14:42.478Z,6.03
2019-02-11T15:17:12.830Z,6.37
2019-02-11T15:19:47.281Z,4.65
2019-02-11T15:22:17.568Z,5.15
2019-02-11T15:24:47.444Z,6.25
2019-02-11T15:27:18.922Z,5.62
2019-02-11T15:29:50.361Z,6.00
2019-02-11T15:32:20.755Z,5.83
2019-02-11T15:34:51.270Z,4.60
2019-02-11T15:37:22.678Z,4.33
2019-02-11T15:39:54.319Z,6.97
2019-02-11T15:42:25.846Z,4.92
2019-02-11T15:44:57.438Z,4.47
2019-02-11T15:47:28.952Z,5.67
2019-02-11T15:50:00.591Z,5.05
2019-02-11T15:52:33.469Z,7.00
2019-02-11T15:55:04.962Z,5.35
2019-02-11T15:57:36.550Z,5.42
2019-02-11T16:00:09.831Z,6.65
2019-02-11T16:02:41.836Z,4.33
2019-02-11T16:05:16.665Z,6.00
2019-02-11T16:07:46.440Z,6.45
2019-02-11T16:10:23.431Z,6.53
2019-02-11T16:12:55.399Z,5.25
2019-02-11T16:15:26.951Z,7.00
2019-02-11T16:17:58.472Z,7.00
2019-02-11T16:20:30.479Z,8.80
2019-02-11T16:23:01.990Z,9.08
2019-02-11T16:25:34.243Z,5.95
2019-02-11T16:28:05.798Z,6.62
2019-02-11T16:30:37.231Z,6.67
2019-02-11T16:33:10.137Z,7.25
2019-02-11T16:35:43.069Z,6.17
2019-02-11T16:38:14.638Z,7.55
2019-02-11T16:40:45.000Z,8.38
2019-02-11T16:43:16.630Z,8.15
2019-02-11T16:45:48.234Z,9.40
2019-02-11T16:48:21.309Z,8.60
2019-02-11T16:50:52.839Z,6.92
2019-02-11T16:53:24.554Z,8.90
2019-02-11T16:55:56.078Z,9.20
2019-02-11T16:58:26.991Z,7.45
2019-02-11T17:00:58.522Z,8.58
2019-02-11T17:03:30.030Z,9.08
2019-02-11T17:06:01.560Z,7.85
2019-02-11T17:08:33.018Z,7.95
2019-02-11T17:11:04.510Z,10.00
2019-02-11T17:13:36.231Z,11.78
2019-02-11T17:16:07.838Z,10.18
2019-02-11T17:18:39.351Z,9.48
2019-02-11T17:21:09.753Z,10.30
2019-02-11T17:23:41.871Z,9.05
2019-02-11T17:26:11.677Z,10.32
2019-02-11T17:28:42.490Z,10.88
2019-02-11T17:31:13.648Z,12.43
2019-02-11T17:33:45.190Z,10.35
2019-02-11T17:36:16.711Z,11.22
2019-02-11T17:38:48.270Z,12.05
2019-02-11T17:41:20.391Z,13.53
2019-02-11T17:43:51.913Z,11.20
2019-02-11T17:46:25.911Z,9.45
2019-02-11T17:48:57.471Z,11.40
2019-02-11T17:51:29.831Z,8.95
2019-02-11T17:54:01.349Z,10.10
2019-02-11T17:56:33.000Z,8.08
2019-02-11T17:59:03.391Z,8.38
2019-02-11T18:01:34.871Z,12.13
2019-02-11T18:04:06.310Z,12.80
2019-02-11T18:06:38.671Z,10.58
2019-02-11T18:09:10.513Z,7.20
2019-02-11T18:11:41.991Z,6.35
2019-02-11T18:14:13.511Z,5.17
2019-02-11T18:16:43.914Z,5.58
2019-02-11T18:19:14.659Z,5.45
2019-02-11T18:21:46.152Z,5.95
2019-02-11T18:24:17.672Z,4.53
2019-02-11T18:26:48.071Z,3.47
2019-02-11T18:29:19.519Z,4.15
2019-02-11T18:31:51.031Z,6.00
2019-02-11T18:34:21.446Z,4.67
2019-02-11T18:36:52.991Z,3.98
2019-02-11T18:39:24.593Z,3.95
2019-02-11T18:41:56.070Z,5.10
2019-02-11T18:44:27.650Z,6.40
2019-02-11T18:46:59.712Z,3.55
2019-02-11T18:49:34.642Z,3.85
2019-02-11T18:52:02.049Z,4.90
2019-02-11T18:54:33.511Z,3.83
2019-02-11T18:57:06.273Z,3.42
2019-02-11T18:59:37.950Z,3.58
2019-02-11T19:02:09.416Z,4.47
2019-02-11T19:04:44.084Z,3.52
2019-02-11T19:07:15.631Z,6.67
2019-02-11T19:09:48.711Z,6.47
2019-02-11T19:12:19.039Z,3.58
2019-02-11T19:14:52.872Z,5.30
2019-02-11T19:17:22.638Z,5.28
2019-02-11T19:19:54.191Z,5.40
2019-02-11T19:22:25.755Z,5.40
2019-02-11T19:24:58.057Z,5.22
2019-02-11T19:27:29.595Z,5.33
2019-02-11T19:30:02.526Z,4.83
2019-02-11T19:32:35.312Z,4.35
2019-02-11T19:35:06.992Z,4.00
2019-02-11T19:37:38.564Z,4.45
2019-02-11T19:40:17.608Z,3.50
2019-02-11T19:42:49.231Z,3.27
2019-02-11T19:45:25.600Z,3.47
2019-02-11T19:47:57.152Z,3.52
2019-02-11T19:50:29.358Z,3.98
2019-02-11T19:53:00.958Z,3.45
2019-02-11T19:55:33.891Z,3.27
2019-02-11T19:58:05.439Z,4.03
2019-02-11T21:51:32.436Z,4.92
2019-02-11T21:54:04.121Z,5.12
2019-02-11T21:56:36.756Z,3.80
2019-02-11T21:59:08.682Z,4.15
2019-02-11T22:01:39.397Z,5.47
2019-02-11T22:04:10.236Z,4.30
2019-02-11T22:06:42.389Z,5.45
2019-02-11T22:09:14.748Z,4.53
2019-02-11T22:11:47.880Z,5.25
2019-02-11T22:14:20.712Z,4.00
2019-02-11T22:16:54.593Z,4.00
2019-02-11T22:22:17.188Z,4.12
2019-02-11T22:24:48.117Z,4.60
2019-02-11T22:27:19.231Z,3.33
2019-02-11T22:29:51.717Z,4.28
2019-02-11T22:32:23.828Z,5.50
2019-02-11T22:34:55.948Z,4.55
2019-02-11T22:37:25.842Z,4.33
2019-02-11T22:39:56.876Z,5.05
2019-02-11T22:42:43.496Z,4.58
2019-02-11T22:45:19.835Z,4.75
2019-02-11T22:47:52.351Z,2.95
2019-02-11T22:50:24.552Z,4.42
2019-02-11T22:52:56.436Z,3.98
2019-02-11T22:55:29.269Z,4.87
2019-02-11T22:58:01.806Z,4.70
2019-02-11T23:00:53.535Z,4.17
2019-02-11T23:03:24.596Z,4.15
2019-02-11T23:05:57.059Z,4.60
2019-02-11T23:08:29.588Z,3.77
2019-02-11T23:11:02.921Z,3.75
2019-02-11T23:13:34.828Z,4.03
2019-02-11T23:16:07.118Z,3.58
2019-02-11T23:18:39.028Z,5.00
2019-02-11T23:21:11.028Z,4.33
2019-02-11T23:23:43.917Z,3.60
2019-02-11T23:26:14.958Z,3.12
2019-02-11T23:28:47.037Z,3.47
2019-02-11T23:31:18.988Z,3.15
2019-02-11T23:33:51.746Z,3.30
2019-02-11T23:36:24.156Z,3.02
2019-02-11T23:38:55.956Z,4.12
2019-02-11T23:41:28.108Z,3.22
2019-02-11T23:44:00.156Z,3.92
2019-02-11T23:46:30.597Z,3.22
2019-02-11T23:49:03.150Z,2.52
2019-02-11T23:51:35.469Z,2.95
2019-02-11T23:54:06.496Z,4.30
2019-02-11T23:56:37.596Z,3.05
2019-02-11T23:59:09.553Z,2.95
